Time;durP1;ratioP1;P1;durP2;ratioP2;P2;SDS_P1;SDS_P2;PMS_P1;PMS_P2;Temp;Humidity;BMP_temperature;BMP_pressure;BME280_temperature;BME280_humidity;BME280_pressure;Samples;Min_cycle;Max_cycle;Signal;HPM_P1;HPM_P2
2021/06/05 00:01:54;;;;;;;1.40;1.30;;;19.00;99.90;;;;;;4830346;29;20530;-84
2021/06/05 00:04:23;;;;;;;1.17;1.17;;;19.00;99.90;;;;;;4829851;29;20466;-84
2021/06/05 00:06:49;;;;;;;1.60;1.50;;;18.90;99.90;;;;;;4829699;29;20462;-83
2021/06/05 00:09:19;;;;;;;1.63;1.53;;;18.70;99.90;;;;;;4830322;29;20538;-84
2021/06/05 00:11:45;;;;;;;2.07;1.97;;;18.70;99.90;;;;;;4829854;29;20458;-84
2021/06/05 00:14:13;;;;;;;1.77;1.67;;;18.80;99.90;;;;;;4829624;29;20988;-83
2021/06/05 00:16:41;;;;;;;3.80;1.90;;;18.80;99.90;;;;;;4830272;29;20504;-83
2021/06/05 00:19:08;;;;;;;2.60;1.83;;;18.90;99.90;;;;;;4829612;29;20466;-84
2021/06/05 00:21:34;;;;;;;1.83;1.73;;;18.80;99.90;;;;;;4829475;29;20481;-84
2021/06/05 00:24:01;;;;;;;2.23;1.63;;;18.80;99.90;;;;;;4830453;29;20530;-84
2021/06/05 00:26:28;;;;;;;2.00;1.70;;;18.80;99.90;;;;;;4830006;29;20467;-83
2021/06/05 00:28:54;;;;;;;2.10;2.00;;;18.80;99.90;;;;;;4830273;29;20466;-85
2021/06/05 00:31:21;;;;;;;1.90;1.80;;;18.70;99.90;;;;;;4829627;29;20474;-82
2021/06/05 00:33:47;;;;;;;1.97;1.87;;;18.70;99.90;;;;;;4829772;29;20490;-84
2021/06/05 00:36:14;;;;;;;1.87;1.77;;;18.60;99.90;;;;;;4830168;29;20505;-84
2021/06/05 00:38:41;;;;;;;2.70;1.40;;;18.60;99.90;;;;;;4830129;29;20523;-85
2021/06/05 00:41:10;;;;;;;2.07;1.87;;;18.50;99.90;;;;;;4830559;29;20477;-83
2021/06/05 00:43:40;;;;;;;1.90;1.73;;;18.30;99.90;;;;;;4830826;29;20554;-83
2021/06/05 00:46:07;;;;;;;1.67;1.57;;;18.20;99.90;;;;;;4830371;29;20470;-84
2021/06/05 00:48:33;;;;;;;1.63;1.53;;;18.10;99.90;;;;;;4830842;29;20471;-84
2021/06/05 00:51:01;;;;;;;1.80;1.70;;;17.90;99.90;;;;;;4829831;29;20465;-83
2021/06/05 00:53:29;;;;;;;1.93;1.73;;;17.90;99.90;;;;;;4829698;29;20845;-84
2021/06/05 00:55:58;;;;;;;3.70;2.37;;;17.80;99.90;;;;;;4829460;29;20476;-84
2021/06/05 00:58:25;;;;;;;2.37;2.13;;;17.80;99.90;;;;;;4829225;29;20465;-84
2021/06/05 01:00:56;;;;;;;2.40;2.20;;;17.80;99.90;;;;;;4829341;29;20469;-84
2021/06/05 01:03:23;;;;;;;2.33;1.73;;;17.80;99.90;;;;;;4832640;29;20476;-84
2021/06/05 01:05:57;;;;;;;2.43;2.23;;;17.70;99.90;;;;;;4833053;29;20960;-84
2021/06/05 01:08:30;;;;;;;1.97;1.87;;;17.70;99.90;;;;;;4832979;29;20465;-84
2021/06/05 01:11:05;;;;;;;1.40;1.30;;;17.60;99.90;;;;;;4833356;29;20466;-84
2021/06/05 01:13:37;;;;;;;2.00;1.80;;;17.60;99.90;;;;;;4832469;29;20485;-84
2021/06/05 01:16:10;;;;;;;2.23;2.13;;;17.50;99.90;;;;;;4833606;29;20456;-84
2021/06/05 01:18:43;;;;;;;2.40;2.23;;;17.50;99.90;;;;;;4832667;29;20461;-84
2021/06/05 01:21:44;;;;;;;2.00;1.90;;;17.60;99.90;;;;;;4832793;29;20461;-84
2021/06/05 01:24:23;;;;;;;2.70;2.20;;;17.70;99.90;;;;;;4832965;29;20827;-84
2021/06/05 01:26:56;;;;;;;2.63;1.87;;;17.70;99.90;;;;;;4832619;29;20465;-84
2021/06/05 01:29:27;;;;;;;2.33;2.13;;;17.60;99.90;;;;;;4832681;29;20453;-84
2021/06/05 01:31:56;;;;;;;2.63;1.87;;;17.60;99.90;;;;;;4832640;29;20592;-84
2021/06/05 01:34:27;;;;;;;2.07;1.97;;;17.60;99.90;;;;;;4832645;29;20464;-86
2021/06/05 01:36:55;;;;;;;2.27;2.17;;;17.60;99.90;;;;;;4832183;29;20867;-86
2021/06/05 01:39:25;;;;;;;2.13;1.90;;;17.70;99.90;;;;;;4832205;29;20465;-86
2021/06/05 01:41:56;;;;;;;1.87;1.73;;;17.60;99.90;;;;;;4831509;29;20507;-86
2021/06/05 01:44:25;;;;;;;4.37;2.50;;;17.60;99.90;;;;;;4831921;29;20822;-86
2021/06/05 01:46:51;;;;;;;2.20;1.93;;;17.60;99.90;;;;;;4831732;29;20470;-86
2021/06/05 01:49:19;;;;;;;1.73;1.63;;;17.50;99.90;;;;;;4831763;29;20991;-86
2021/06/05 01:51:48;;;;;;;2.63;2.43;;;17.50;99.90;;;;;;4831650;29;20461;-85
2021/06/05 01:54:19;;;;;;;3.10;1.70;;;17.50;99.90;;;;;;4831511;29;20457;-83
2021/06/05 01:56:48;;;;;;;1.90;1.50;;;17.60;99.90;;;;;;4831810;29;20501;-86
2021/06/05 01:59:17;;;;;;;1.90;1.80;;;17.50;99.90;;;;;;4831598;29;20473;-86
2021/06/05 02:01:45;;;;;;;2.67;1.33;;;17.50;99.90;;;;;;4834962;29;20436;-81
2021/06/05 02:04:12;;;;;;;3.07;1.77;;;17.40;99.90;;;;;;4849310;29;20469;-79
2021/06/05 02:06:39;;;;;;;1.53;1.43;;;17.40;99.90;;;;;;4848817;29;20461;-79
2021/06/05 02:09:07;;;;;;;3.40;1.90;;;17.40;99.90;;;;;;4835843;29;20457;-86
2021/06/05 02:11:38;;;;;;;2.10;1.87;;;17.40;99.90;;;;;;4830986;29;20544;-86
2021/06/05 02:14:09;;;;;;;1.10;1.10;;;17.50;99.90;;;;;;4830327;29;20476;-84
2021/06/05 02:16:41;;;;;;;2.70;1.80;;;17.40;99.90;;;;;;4831370;29;20505;-86
2021/06/05 02:19:11;;;;;;;2.87;1.43;;;17.40;99.90;;;;;;4831389;29;20464;-83
2021/06/05 02:21:42;;;;;;;2.53;1.70;;;17.50;99.90;;;;;;4830717;29;20472;-85
2021/06/05 02:24:15;;;;;;;2.23;2.03;;;17.50;99.90;;;;;;4831011;29;20466;-86
2021/06/05 02:26:43;;;;;;;1.60;1.50;;;17.50;99.90;;;;;;4829961;29;20461;-83
2021/06/05 02:29:13;;;;;;;2.00;1.50;;;17.50;99.90;;;;;;4830242;29;20471;-85
2021/06/05 02:31:41;;;;;;;1.40;1.30;;;17.50;99.90;;;;;;4830636;29;20467;-83
2021/06/05 02:34:11;;;;;;;4.20;1.33;;;17.50;99.90;;;;;;4831387;29;20465;-86
2021/06/05 02:36:39;;;;;;;1.70;1.60;;;17.50;99.90;;;;;;4831280;29;20490;-86
2021/06/05 02:39:06;;;;;;;1.63;1.53;;;17.50;99.90;;;;;;4831238;29;20527;-84
2021/06/05 02:41:34;;;;;;;1.77;1.40;;;17.50;99.90;;;;;;4830828;29;20461;-87
2021/06/05 02:44:00;;;;;;;2.07;1.57;;;17.50;99.90;;;;;;4830464;29;20450;-86
2021/06/05 02:46:31;;;;;;;1.53;1.43;;;17.50;99.90;;;;;;4830895;29;20473;-86
2021/06/05 02:49:01;;;;;;;3.43;2.83;;;17.50;99.90;;;;;;4830987;29;20471;-87
2021/06/05 02:51:31;;;;;;;1.87;1.50;;;17.50;99.90;;;;;;4830583;29;20878;-85
2021/06/05 02:53:57;;;;;;;1.57;1.47;;;17.50;99.90;;;;;;4831145;29;20477;-87
2021/06/05 02:56:25;;;;;;;1.70;1.60;;;17.40;99.90;;;;;;4830436;29;20521;-84
2021/06/05 02:58:51;;;;;;;1.73;1.63;;;17.50;99.90;;;;;;4830575;29;20461;-87
2021/06/05 03:01:18;;;;;;;1.70;1.60;;;17.40;99.90;;;;;;4830978;29;20488;-86
2021/06/05 03:03:44;;;;;;;1.87;1.60;;;17.50;99.90;;;;;;4831036;29;20486;-85
2021/06/05 03:06:12;;;;;;;1.80;1.70;;;17.50;99.90;;;;;;4830572;29;20457;-86
2021/06/05 03:08:41;;;;;;;1.37;1.27;;;17.60;99.90;;;;;;4830696;29;20461;-86
2021/06/05 03:11:10;;;;;;;1.50;1.40;;;17.50;99.90;;;;;;4830537;29;20630;-87
2021/06/05 03:13:37;;;;;;;1.50;1.40;;;17.50;99.90;;;;;;4830892;29;20485;-84
2021/06/05 03:16:04;;;;;;;1.60;1.50;;;17.50;99.90;;;;;;4830468;29;20960;-86
2021/06/05 03:18:30;;;;;;;1.50;1.40;;;17.50;99.90;;;;;;4832993;29;20860;-83
2021/06/05 03:20:58;;;;;;;1.60;1.50;;;17.50;99.90;;;;;;4833419;29;20469;-86
2021/06/05 03:23:28;;;;;;;3.20;2.00;;;17.50;99.90;;;;;;4830732;29;20489;-83
2021/06/05 03:25:55;;;;;;;2.90;1.70;;;17.60;99.90;;;;;;4830936;29;20522;-85
2021/06/05 03:28:24;;;;;;;1.87;1.40;;;17.60;99.90;;;;;;4831004;29;20466;-86
2021/06/05 03:30:50;;;;;;;2.00;1.70;;;17.60;99.90;;;;;;4830268;29;20794;-86
2021/06/05 03:33:17;;;;;;;1.90;1.80;;;17.60;99.90;;;;;;4830402;29;20493;-86
2021/06/05 03:35:44;;;;;;;1.40;1.30;;;17.60;99.90;;;;;;4830283;29;20464;-87
2021/06/05 03:38:11;;;;;;;1.73;1.63;;;17.50;99.90;;;;;;4830196;29;20583;-86
2021/06/05 03:40:39;;;;;;;1.10;1.10;;;17.50;99.90;;;;;;4830232;29;20518;-85
2021/06/05 03:43:06;;;;;;;1.83;1.70;;;17.50;99.90;;;;;;4830224;29;20488;-84
2021/06/05 03:45:33;;;;;;;1.50;1.40;;;17.60;99.90;;;;;;4832455;29;20465;-86
2021/06/05 03:48:00;;;;;;;3.07;1.47;;;17.50;99.90;;;;;;4834737;29;20472;-85
2021/06/05 03:50:30;;;;;;;4.33;1.80;;;17.50;99.90;;;;;;4834949;29;20461;-86
2021/06/05 03:52:56;;;;;;;1.40;1.30;;;17.50;99.90;;;;;;4835816;29;20502;-86
2021/06/05 03:55:23;;;;;;;2.60;2.40;;;17.60;99.90;;;;;;4845417;29;20456;-78
2021/06/05 03:57:51;;;;;;;1.70;1.60;;;17.60;99.90;;;;;;4848500;29;20588;-79
2021/06/05 04:00:22;;;;;;;3.37;1.47;;;17.60;99.90;;;;;;4848530;29;20465;-80
2021/06/05 04:02:48;;;;;;;2.23;2.03;;;17.70;99.90;;;;;;4848197;29;20473;-82
2021/06/05 04:05:16;;;;;;;2.03;1.93;;;17.70;99.90;;;;;;4848292;29;20524;-80
2021/06/05 04:07:42;;;;;;;1.93;1.73;;;17.80;99.90;;;;;;4848371;29;20445;-79
2021/06/05 04:10:10;;;;;;;1.50;1.40;;;17.80;99.90;;;;;;4848493;29;20441;-82
2021/06/05 04:12:37;;;;;;;2.33;2.13;;;17.80;99.90;;;;;;4848266;29;20513;-79
2021/06/05 04:15:07;;;;;;;1.30;1.20;;;17.90;99.90;;;;;;4848418;29;20481;-80
2021/06/05 04:17:34;;;;;;;1.83;1.50;;;18.00;99.90;;;;;;4848103;29;20514;-79
2021/06/05 04:20:00;;;;;;;2.63;1.57;;;18.00;99.90;;;;;;4848299;29;20438;-79
2021/06/05 04:22:26;;;;;;;1.80;1.70;;;18.10;99.90;;;;;;4848254;29;20501;-79
2021/06/05 04:24:53;;;;;;;2.13;1.67;;;18.10;99.90;;;;;;4848210;29;20477;-80
2021/06/05 04:27:19;;;;;;;1.63;1.53;;;18.20;99.90;;;;;;4848225;29;20460;-80
2021/06/05 04:29:45;;;;;;;1.97;1.80;;;18.20;99.90;;;;;;4848237;29;20484;-79
2021/06/05 04:32:13;;;;;;;1.57;1.47;;;18.20;99.90;;;;;;4847929;29;20518;-79
2021/06/05 04:34:40;;;;;;;2.33;2.23;;;18.30;99.90;;;;;;4848135;29;20441;-79
2021/06/05 04:37:06;;;;;;;1.70;1.57;;;18.30;99.90;;;;;;4847349;29;20494;-79
2021/06/05 04:39:33;;;;;;;1.80;1.47;;;18.40;99.90;;;;;;4847938;29;20457;-79
2021/06/05 04:42:00;;;;;;;2.57;1.50;;;18.40;99.90;;;;;;4847355;29;20473;-80
2021/06/05 04:44:26;;;;;;;1.33;1.27;;;18.50;99.90;;;;;;4847944;29;20508;-79
2021/06/05 04:46:52;;;;;;;3.70;2.27;;;18.50;99.90;;;;;;4848108;29;20442;-80
2021/06/05 04:49:21;;;;;;;3.27;1.97;;;18.60;99.90;;;;;;4847927;29;20461;-79
2021/06/05 04:51:47;;;;;;;1.83;1.73;;;18.60;99.90;;;;;;4847742;29;20482;-79
2021/06/05 04:54:14;;;;;;;2.47;1.40;;;18.70;99.90;;;;;;4848108;29;20490;-79
2021/06/05 04:56:43;;;;;;;2.80;2.17;;;18.70;99.90;;;;;;4847785;29;20506;-80
2021/06/05 04:59:11;;;;;;;1.77;1.60;;;18.70;99.90;;;;;;4847922;29;20449;-80
2021/06/05 05:01:38;;;;;;;2.43;1.70;;;18.80;99.90;;;;;;4847515;29;20485;-79
2021/06/05 05:04:05;;;;;;;1.57;1.47;;;18.90;99.90;;;;;;4847867;29;20450;-79
2021/06/05 05:06:34;;;;;;;2.13;1.93;;;18.90;99.90;;;;;;4847738;29;20467;-79
2021/06/05 05:09:03;;;;;;;2.50;1.77;;;19.00;99.90;;;;;;4847721;29;20444;-79
2021/06/05 05:11:29;;;;;;;4.17;1.77;;;18.90;99.90;;;;;;4847540;29;20451;-79
2021/06/05 05:13:55;;;;;;;1.70;1.60;;;19.00;99.90;;;;;;4847719;29;20441;-78
2021/06/05 05:16:22;;;;;;;1.87;1.77;;;18.90;99.90;;;;;;4847321;29;20445;-79
2021/06/05 05:18:49;;;;;;;2.00;1.80;;;18.90;99.90;;;;;;4847374;29;20530;-81
2021/06/05 05:21:16;;;;;;;1.50;1.40;;;18.90;99.90;;;;;;4847462;29;20464;-79
2021/06/05 05:23:44;;;;;;;1.60;1.50;;;18.90;99.90;;;;;;4847232;29;20475;-79
2021/06/05 05:26:11;;;;;;;2.00;1.90;;;19.00;99.90;;;;;;4847654;29;20487;-79
2021/06/05 05:28:38;;;;;;;1.87;1.60;;;19.00;99.90;;;;;;4847399;29;20468;-79
2021/06/05 05:31:07;;;;;;;2.10;1.50;;;19.10;99.90;;;;;;4846303;29;20462;-80
2021/06/05 05:33:37;;;;;;;2.03;1.93;;;19.10;99.90;;;;;;4843154;29;20478;-83
2021/06/05 05:36:08;;;;;;;2.13;1.80;;;19.20;99.90;;;;;;4828792;29;20550;-84
2021/06/05 05:38:37;;;;;;;2.17;1.90;;;19.30;99.90;;;;;;4826276;29;20565;-84
2021/06/05 05:41:05;;;;;;;3.50;3.30;;;19.40;99.90;;;;;;4825844;29;20470;-83
2021/06/05 05:43:31;;;;;;;1.70;1.60;;;19.40;99.90;;;;;;4826489;29;20486;-83
2021/06/05 05:45:57;;;;;;;1.83;1.73;;;19.50;99.90;;;;;;4826809;29;20463;-84
2021/06/05 05:48:23;;;;;;;1.77;1.50;;;19.60;99.90;;;;;;4827707;29;20527;-83
2021/06/05 05:50:50;;;;;;;3.27;2.00;;;19.70;99.90;;;;;;4828704;29;20481;-84
2021/06/05 05:53:17;;;;;;;2.40;1.60;;;19.80;99.90;;;;;;4829089;29;20486;-85
2021/06/05 05:55:44;;;;;;;3.10;2.43;;;19.90;99.90;;;;;;4829440;29;20463;-82
2021/06/05 05:58:14;;;;;;;1.97;1.80;;;19.80;99.90;;;;;;4829659;29;20495;-84
2021/06/05 06:00:43;;;;;;;1.50;1.27;;;19.70;99.90;;;;;;4829639;29;20486;-84
2021/06/05 06:03:09;;;;;;;2.37;1.50;;;19.80;99.90;;;;;;4829465;29;20502;-84
2021/06/05 06:05:36;;;;;;;3.50;1.80;;;19.80;99.90;;;;;;4829723;29;20838;-83
2021/06/05 06:08:03;;;;;;;2.80;2.33;;;19.90;99.90;;;;;;4831514;29;20467;-84
2021/06/05 06:10:29;;;;;;;1.80;1.60;;;20.00;99.90;;;;;;4842758;29;20443;-80
2021/06/05 06:12:56;;;;;;;3.07;1.83;;;19.90;99.90;;;;;;4849505;29;20463;-78
2021/06/05 06:15:26;;;;;;;1.80;1.30;;;20.00;99.90;;;;;;4849980;29;20486;-79
2021/06/05 06:17:53;;;;;;;5.40;1.67;;;19.90;99.90;;;;;;4841929;29;20492;-83
2021/06/05 06:20:22;;;;;;;1.80;1.70;;;19.90;99.90;;;;;;4844190;29;20462;-80
2021/06/05 06:22:48;;;;;;;4.90;1.93;;;20.00;99.90;;;;;;4849150;29;20491;-79
2021/06/05 06:25:19;;;;;;;1.40;1.30;;;20.00;99.90;;;;;;4849966;29;20451;-79
2021/06/05 06:27:45;;;;;;;1.73;1.50;;;20.10;99.90;;;;;;4850082;29;20427;-77
2021/06/05 06:30:14;;;;;;;1.80;1.30;;;20.10;99.90;;;;;;4849990;29;20522;-78
2021/06/05 06:32:42;;;;;;;1.50;1.40;;;20.10;99.90;;;;;;4848498;29;20516;-81
2021/06/05 06:35:09;;;;;;;1.47;1.47;;;20.00;99.90;;;;;;4848583;29;20470;-81
2021/06/05 06:37:35;;;;;;;1.73;1.63;;;20.10;99.90;;;;;;4849277;29;20471;-78
2021/06/05 06:40:02;;;;;;;1.63;1.53;;;20.20;99.90;;;;;;4849791;29;20440;-78
2021/06/05 06:42:28;;;;;;;2.03;1.60;;;20.30;99.90;;;;;;4849502;29;20480;-78
2021/06/05 06:44:54;;;;;;;2.03;1.50;;;20.40;99.90;;;;;;4849626;29;20443;-77
2021/06/05 06:47:21;;;;;;;2.53;2.10;;;20.60;99.90;;;;;;4849624;29;20519;-78
2021/06/05 06:49:48;;;;;;;2.80;2.03;;;20.80;99.90;;;;;;4849588;29;20532;-78
2021/06/05 06:52:14;;;;;;;1.80;1.70;;;20.90;99.90;;;;;;4849224;29;20471;-78
2021/06/05 06:54:41;;;;;;;1.70;1.60;;;21.00;99.90;;;;;;4849601;29;20440;-80
2021/06/05 06:57:07;;;;;;;2.97;1.97;;;21.10;99.90;;;;;;4849495;29;20562;-78
2021/06/05 06:59:33;;;;;;;1.60;1.50;;;21.20;99.90;;;;;;4848689;29;20542;-78
2021/06/05 07:02:00;;;;;;;1.23;1.20;;;21.40;99.90;;;;;;4849358;29;20551;-77
2021/06/05 07:04:26;;;;;;;2.70;1.63;;;21.50;99.90;;;;;;4849519;29;20451;-77
2021/06/05 07:06:53;;;;;;;1.47;1.23;;;21.60;99.90;;;;;;4849212;29;20467;-77
2021/06/05 07:09:20;;;;;;;2.33;1.60;;;21.80;99.90;;;;;;4849289;29;20494;-78
2021/06/05 07:11:46;;;;;;;2.63;1.50;;;21.80;99.90;;;;;;4848800;29;20466;-78
2021/06/05 07:14:12;;;;;;;2.80;1.23;;;21.90;99.90;;;;;;4849326;29;20444;-78
2021/06/05 07:16:39;;;;;;;1.50;1.40;;;22.00;99.90;;;;;;4849000;29;20504;-83
2021/06/05 07:19:07;;;;;;;1.40;1.30;;;22.10;99.90;;;;;;4849085;29;20469;-79
2021/06/05 07:21:33;;;;;;;1.50;1.40;;;22.10;99.90;;;;;;4848755;29;20488;-79
2021/06/05 07:24:01;;;;;;;2.00;1.60;;;22.40;99.60;;;;;;4848948;29;20453;-79
2021/06/05 07:26:28;;;;;;;1.70;1.60;;;22.60;99.60;;;;;;4848656;29;20461;-81
2021/06/05 07:28:56;;;;;;;1.50;1.40;;;22.60;99.30;;;;;;4847702;29;20479;-82
2021/06/05 07:31:25;;;;;;;1.07;1.07;;;22.60;99.10;;;;;;4844241;29;20458;-83
2021/06/05 07:33:54;;;;;;;1.73;1.63;;;22.70;99.10;;;;;;4830164;29;20486;-83
2021/06/05 07:36:23;;;;;;;1.90;1.20;;;22.90;98.90;;;;;;4828811;29;20473;-81
2021/06/05 07:38:49;;;;;;;2.73;1.63;;;23.00;98.90;;;;;;4828608;29;20501;-84
2021/06/05 07:41:17;;;;;;;2.30;1.63;;;23.00;99.10;;;;;;4828673;29;20489;-82
2021/06/05 07:43:43;;;;;;;1.70;1.60;;;23.00;99.20;;;;;;4827155;29;20976;-83
2021/06/05 07:46:09;;;;;;;2.83;1.40;;;23.00;99.00;;;;;;4828984;29;21014;-83
2021/06/05 07:48:36;;;;;;;1.37;1.20;;;23.10;99.00;;;;;;4829469;29;20596;-82
2021/06/05 07:51:04;;;;;;;1.60;1.40;;;23.20;99.10;;;;;;4829993;29;20570;-81
2021/06/05 07:53:49;;;;;;;1.97;1.50;;;23.20;98.70;;;;;;4829710;29;20467;-84
2021/06/05 08:44:50;;;;;;;3.17;1.50;;;23.30;98.20;;;;;;4629901;31;20531;-83
2021/06/05 08:47:21;;;;;;;2.20;1.80;;;23.40;98.40;;;;;;4666974;30;20466;-84
2021/06/05 08:49:48;;;;;;;2.50;1.20;;;23.40;97.80;;;;;;4719246;30;21114;-83
2021/06/05 08:52:27;;;;;;;1.70;1.27;;;23.50;98.00;;;;;;4797081;29;20486;-83
2021/06/05 08:55:00;;;;;;;1.80;1.70;;;23.60;97.70;;;;;;4841074;29;20444;-83
2021/06/05 08:57:32;;;;;;;2.00;1.80;;;23.60;97.90;;;;;;4838679;29;20486;-84
2021/06/05 09:00:09;;;;;;;1.80;1.70;;;23.70;97.70;;;;;;4835372;29;20453;-82
2021/06/05 09:02:37;;;;;;;1.53;1.23;;;23.60;97.80;;;;;;4836030;29;20489;-83
2021/06/05 09:05:06;;;;;;;4.60;1.50;;;23.60;97.30;;;;;;4838410;29;20459;-82
2021/06/05 09:07:32;;;;;;;2.07;1.57;;;23.60;97.40;;;;;;4838273;29;20524;-83
2021/06/05 09:09:59;;;;;;;1.40;1.30;;;23.60;97.30;;;;;;4838668;29;20459;-83
2021/06/05 09:12:25;;;;;;;1.40;1.30;;;23.60;96.60;;;;;;4838655;29;20574;-83
2021/06/05 09:14:56;;;;;;;3.03;1.60;;;23.60;96.60;;;;;;4838947;29;20482;-83
2021/06/05 09:17:35;;;;;;;2.07;1.60;;;23.50;96.50;;;;;;4838382;29;20527;-83
2021/06/05 09:20:09;;;;;;;2.27;2.10;;;23.60;96.90;;;;;;4829466;29;20474;-82
2021/06/05 09:22:37;;;;;;;1.37;1.27;;;23.60;97.10;;;;;;4826035;29;20544;-82
2021/06/05 09:25:34;;;;;;;1.47;1.37;;;23.60;96.80;;;;;;4830526;29;20463;-82
2021/06/05 09:28:24;;;;;;;1.63;1.53;;;23.70;97.00;;;;;;4833400;29;20588;-83
2021/06/05 09:30:52;;;;;;;4.30;1.70;;;23.70;96.80;;;;;;4832018;29;20459;-83
2021/06/05 09:33:31;;;;;;;2.33;1.67;;;23.90;96.90;;;;;;4832686;29;20511;-82
2021/06/05 09:36:15;;;;;;;2.10;1.77;;;23.90;96.40;;;;;;4833575;29;20463;-82
2021/06/05 09:38:51;;;;;;;2.07;1.20;;;24.10;95.90;;;;;;4831866;29;20494;-84
2021/06/05 09:41:22;;;;;;;1.50;1.40;;;24.10;95.90;;;;;;4832215;29;20549;-84
2021/06/05 09:43:50;;;;;;;1.47;1.23;;;24.20;96.30;;;;;;4831144;29;20966;-84
2021/06/05 09:46:24;;;;;;;1.57;1.47;;;24.20;96.10;;;;;;4832009;29;21053;-83
2021/06/05 09:49:10;;;;;;;1.37;1.23;;;24.30;96.50;;;;;;4832026;29;20442;-83
2021/06/05 09:51:53;;;;;;;;;;;;;;;;;;;;;
2021/06/05 09:54:50;;;;;;;1.83;1.30;;;24.60;96.20;;;;;;4832685;29;20538;-82
2021/06/05 09:57:26;;;;;;;1.50;1.40;;;24.70;95.40;;;;;;4831090;29;20576;-83
2021/06/05 10:00:08;;;;;;;1.80;1.50;;;24.70;94.80;;;;;;4829754;29;20469;-84
2021/06/05 10:02:40;;;;;;;1.63;1.30;;;24.70;95.70;;;;;;4830154;29;20503;-83
2021/06/05 10:05:29;;;;;;;5.83;1.80;;;24.60;95.30;;;;;;4830515;29;20972;-85
2021/06/05 10:08:17;;;;;;;1.20;1.20;;;24.50;95.50;;;;;;4831405;29;20555;-83
2021/06/05 10:10:45;;;;;;;1.40;1.30;;;24.40;96.40;;;;;;4832102;29;20462;-84
2021/06/05 10:13:15;;;;;;;2.37;1.70;;;24.30;96.40;;;;;;4831417;29;20507;-84
2021/06/05 10:15:53;;;;;;;2.03;1.93;;;24.10;97.30;;;;;;4831516;29;20471;-84
2021/06/05 10:18:22;;;;;;;1.73;1.63;;;24.00;98.20;;;;;;4832013;29;20497;-84
2021/06/05 10:21:02;;;;;;;2.27;2.07;;;24.10;98.20;;;;;;4831656;29;20520;-84
2021/06/05 10:23:50;;;;;;;3.43;1.87;;;24.00;99.10;;;;;;4830411;29;20469;-84
2021/06/05 10:26:25;;;;;;;2.63;2.00;;;24.00;98.90;;;;;;4830193;29;20496;-83
2021/06/05 10:28:56;;;;;;;2.10;1.90;;;23.80;99.10;;;;;;4841415;29;20445;-83
2021/06/05 10:31:23;;;;;;;1.67;1.57;;;23.60;99.00;;;;;;4844866;29;20519;-82
2021/06/05 10:33:54;;;;;;;2.93;1.80;;;23.50;99.10;;;;;;4841826;29;20517;-85
2021/06/05 10:36:24;;;;;;;2.63;2.43;;;23.50;99.70;;;;;;4828444;29;20474;-83
2021/06/05 10:38:53;;;;;;;1.87;1.70;;;23.40;99.90;;;;;;4828831;29;20495;-84
2021/06/05 10:41:25;;;;;;;2.70;2.13;;;23.30;99.90;;;;;;4829639;29;20459;-85
2021/06/05 10:43:52;;;;;;;1.80;1.70;;;23.10;99.90;;;;;;4830728;29;20470;-85
2021/06/05 10:46:39;;;;;;;2.93;2.23;;;23.10;99.90;;;;;;4831242;29;20471;-83
2021/06/05 10:49:20;;;;;;;4.07;3.43;;;23.00;99.90;;;;;;4830053;29;20462;-85
2021/06/05 10:52:04;;;;;;;1.83;1.67;;;23.10;99.90;;;;;;4829003;29;20454;-84
2021/06/05 10:54:36;;;;;;;2.40;2.07;;;23.10;99.90;;;;;;4829733;29;20465;-88
2021/06/05 10:57:07;;;;;;;1.80;1.70;;;23.20;99.90;;;;;;4830459;29;20431;-83
2021/06/05 11:05:59;;;;;;;1.93;1.80;;;23.40;99.40;;;;;;4828123;29;20835;-84
2021/06/05 11:08:42;;;;;;;2.23;2.03;;;23.50;99.90;;;;;;4828566;29;20466;-84
2021/06/05 11:11:34;;;;;;;1.63;1.53;;;23.50;99.90;;;;;;4828753;29;20558;-83
2021/06/05 11:14:06;;;;;;;1.80;1.70;;;23.50;99.20;;;;;;4829483;29;20486;-84
2021/06/05 11:17:15;;;;;;;1.97;1.73;;;23.50;98.90;;;;;;4829794;29;20538;-83
2021/06/05 11:19:54;;;;;;;1.70;1.60;;;23.60;99.00;;;;;;4828963;29;20451;-86
2021/06/05 11:23:00;;;;;;;1.80;1.47;;;23.70;97.50;;;;;;4830350;29;20825;-84
2021/06/05 11:25:33;;;;;;;2.50;2.30;;;23.80;98.00;;;;;;4829617;29;20515;-85
2021/06/05 11:28:42;;;;;;;1.50;1.40;;;23.90;99.10;;;;;;4828198;29;20461;-82
2021/06/05 11:31:56;;;;;;;3.90;3.60;;;24.00;97.70;;;;;;4830411;29;20458;-86
2021/06/05 11:35:07;;;;;;;;;;;;;;;;;;;;;
2021/06/05 11:37:55;;;;;;;1.90;1.80;;;24.60;96.70;;;;;;4826252;29;20579;-84
2021/06/05 11:41:02;;;;;;;1.60;1.50;;;24.80;95.80;;;;;;4831531;29;20464;-84
2021/06/05 11:44:23;;;;;;;1.73;1.63;;;25.10;95.50;;;;;;4829198;29;21016;-84
2021/06/05 11:46:58;;;;;;;1.63;1.53;;;25.20;95.10;;;;;;4815150;29;20524;-84
2021/06/05 11:50:09;;;;;;;3.40;1.43;;;25.40;94.80;;;;;;4829890;29;20473;-86
2021/06/05 11:56:05;;;;;;;;;;;;;;;;;;;;;
2021/06/05 11:58:42;;;;;;;1.43;1.33;;;26.70;94.70;;;;;;4827759;29;20596;-83
2021/06/05 12:01:15;;;;;;;2.03;1.93;;;27.20;93.50;;;;;;4831946;29;20482;-84
2021/06/05 12:03:50;;;;;;;1.50;1.40;;;27.50;92.00;;;;;;4830659;29;20827;-85
2021/06/05 12:06:28;;;;;;;1.83;1.73;;;27.40;91.40;;;;;;4826538;29;20459;-84
2021/06/05 12:09:38;;;;;;;3.60;1.33;;;27.30;91.20;;;;;;4829051;29;20464;-84
2021/06/05 12:12:21;;;;;;;1.77;1.67;;;27.00;91.30;;;;;;4739134;30;20498;-82
2021/06/05 12:15:39;;;;;;;1.77;1.50;;;26.70;92.50;;;;;;4740275;30;20452;-84
2021/06/05 12:18:44;;;;;;;2.63;1.37;;;26.70;92.70;;;;;;4821720;29;20850;-83
2021/06/05 12:21:49;;;;;;;;;;;;;;;;;;;;;
2021/06/05 12:24:48;;;;;;;1.60;1.50;;;26.90;92.10;;;;;;4829578;29;20533;-83
2021/06/05 12:27:48;;;;;;;1.20;1.20;;;27.10;92.00;;;;;;4830586;29;21037;-83
2021/06/05 12:33:57;;;;;;;1.30;0.90;;;27.10;91.00;;;;;;4753042;29;20506;-85
2021/06/05 12:36:33;;;;;;;1.33;1.23;;;27.00;90.80;;;;;;4828594;29;20474;-83
2021/06/05 12:39:20;;;;;;;1.00;1.00;;;27.00;91.00;;;;;;4826204;29;20491;-85
2021/06/05 12:41:51;;;;;;;1.20;1.07;;;27.40;90.40;;;;;;4827532;29;20535;-83
2021/06/05 12:57:36;;;;;;;1.67;0.77;;;29.90;78.80;;;;;;4729932;30;20487;-83
2021/06/05 13:06:58;;;;;;;1.37;1.00;;;29.50;78.70;;;;;;4625245;30;20499;-83
2021/06/05 13:12:45;;;;;;;1.10;1.00;;;28.80;80.40;;;;;;4697207;30;20488;-84
2021/06/05 13:15:38;;;;;;;1.60;0.83;;;28.30;80.40;;;;;;4809187;29;21137;-83
2021/06/05 13:18:05;;;;;;;0.93;0.90;;;27.90;82.10;;;;;;4812116;29;20554;-83
2021/06/05 13:20:45;;;;;;;1.13;1.10;;;27.50;82.60;;;;;;4812113;29;20464;-83
2021/06/05 13:23:34;;;;;;;1.00;1.00;;;27.40;85.80;;;;;;4812158;29;20486;-83
2021/06/05 13:26:34;;;;;;;0.77;0.77;;;27.60;87.10;;;;;;4812133;29;20468;-85
2021/06/05 13:29:29;;;;;;;0.70;0.63;;;27.70;85.20;;;;;;4791182;29;20513;-84
2021/06/05 13:32:04;;;;;;;0.73;0.73;;;28.10;86.30;;;;;;4811261;29;20486;-84
2021/06/05 13:34:38;;;;;;;1.83;1.70;;;28.50;84.10;;;;;;4814613;29;20573;-84
2021/06/05 13:37:36;;;;;;;3.30;0.83;;;28.70;83.80;;;;;;4815747;29;20510;-83
2021/06/05 13:40:06;;;;;;;0.90;0.80;;;29.00;81.20;;;;;;4815509;29;20442;-84
2021/06/05 13:46:05;;;;;;;0.80;0.77;;;28.60;81.40;;;;;;4753604;30;20608;-83
2021/06/05 13:51:27;;;;;;;0.97;0.97;;;27.90;83.00;;;;;;4815181;29;20459;-82
2021/06/05 13:53:54;;;;;;;1.83;0.83;;;27.50;84.20;;;;;;4816022;29;20562;-84
2021/06/05 13:56:23;;;;;;;1.07;0.60;;;27.20;85.00;;;;;;4815788;29;20453;-84
2021/06/05 13:58:49;;;;;;;0.70;0.70;;;26.90;84.50;;;;;;4815402;29;20498;-84
2021/06/05 14:01:21;;;;;;;0.70;0.70;;;26.70;84.50;;;;;;4817147;29;20465;-84
2021/06/05 14:03:48;;;;;;;0.70;0.70;;;26.30;85.30;;;;;;4833849;29;20481;-84
2021/06/05 14:06:14;;;;;;;0.80;0.80;;;26.00;87.20;;;;;;4833592;29;20521;-82
2021/06/05 14:08:41;;;;;;;0.77;0.77;;;25.70;88.60;;;;;;4832914;29;20473;-84
2021/06/05 14:11:15;;;;;;;0.80;0.80;;;25.50;88.40;;;;;;4833312;29;20451;-84
2021/06/05 14:13:42;;;;;;;0.80;0.60;;;25.40;89.00;;;;;;4832522;29;20856;-84
2021/06/05 14:16:08;;;;;;;1.17;1.07;;;25.10;90.00;;;;;;4832996;29;20459;-84
2021/06/05 14:18:36;;;;;;;1.00;1.00;;;25.10;90.40;;;;;;4832849;29;20925;-83
2021/06/05 14:21:04;;;;;;;1.03;0.73;;;24.80;90.80;;;;;;4832679;29;20463;-84
2021/06/05 14:23:30;;;;;;;0.57;0.57;;;24.60;91.50;;;;;;4832184;29;20513;-84
2021/06/05 14:25:57;;;;;;;0.70;0.70;;;24.30;91.80;;;;;;4832499;29;20459;-84
2021/06/05 14:28:25;;;;;;;0.80;0.80;;;24.20;92.60;;;;;;4832137;29;20466;-84
2021/06/05 14:30:54;;;;;;;0.80;0.80;;;24.00;92.50;;;;;;4832910;29;21033;-84
2021/06/05 14:33:23;;;;;;;0.83;0.83;;;23.90;92.70;;;;;;4832829;29;20491;-83
2021/06/05 14:35:51;;;;;;;0.80;0.80;;;23.90;93.10;;;;;;4832470;29;20470;-82
2021/06/05 14:38:20;;;;;;;1.30;1.20;;;24.00;93.70;;;;;;4832751;29;20499;-84
2021/06/05 14:40:49;;;;;;;1.13;0.87;;;24.10;92.90;;;;;;4832364;29;20461;-84
2021/06/05 14:43:15;;;;;;;1.10;1.03;;;24.30;93.10;;;;;;4841474;29;20475;-82
2021/06/05 14:45:49;;;;;;;1.20;0.70;;;24.40;93.30;;;;;;4845877;29;20448;-80
2021/06/05 14:48:18;;;;;;;1.30;0.93;;;24.60;93.30;;;;;;4843524;29;20459;-83